HYA weather

Barnstable Municipal Boardman Polando Field
Hyannis, Massachusetts, United States

Public forecast

Using degrees Fahrenheit for public forecast. Weather courtesy of forecast.io.

Current aviation weather report (METAR) for Barnstable Municipal Boardman Polando Field

Retrieved 2019/12/08 04:56 UTC (14 minutes ago):

KHYA 080456Z AUTO 28006KT 10SM BKN035 M03/M10 A3044 RMK AO2 SLP309 T10281100 400221028

Aviation forecast (TAF) for Barnstable Municipal Boardman Polando Field

Retrieved 2019-12-08 00:24 UTC (5 hours ago):

TAF KHYA 072320Z 0800/0824 30004KT P6SM FEW045 FM081400 24004KT P6SM SKC FM082200 20012KT P6SM SCT120